Riddle Hill, Illinois
Current Conditions -  °F | °C
As of 11:52 AM on Thursday 30 Oct 2014 (Local Time) from KSPI Reporting Station
Overcast Overcast  
Wind Chill: 53°   Ceiling: 9500
Heat Index: 53°   Visibility: 10mi
Dew Point: 40°   Wind: 12mph
Humidity: 61%   Direction: 190°S
Pressure: 30.12"   Gusts: NA
Location:  39.854°N, 89.6295°W
Report Text: KSPI 301652Z 19010KT 10SM FEW070 OVC095 12/04 A3012 RMK AO2 SLP201 T01170044
Loading
Personal Weather Stations






























Interactive Weather Map
Tropical Storm Tracking
New forecast layout! Learn more

10-Day Weather Forecast

Advertisements
Track Severe Weather on mobile